createdAt,value
2023-07-10T00:01:46.500Z,100144.19
2023-07-10T00:04:17.078Z,100147.63
2023-07-10T00:06:45.317Z,100142.66
2023-07-10T00:09:12.830Z,100142.66
2023-07-10T00:11:43.033Z,100145.66
2023-07-10T00:14:19.058Z,100139.19
2023-07-10T00:16:46.542Z,100130.47
2023-07-10T00:19:15.502Z,100142.38
2023-07-10T00:21:43.235Z,100140.50
2023-07-10T00:24:11.155Z,100144.78
2023-07-10T00:26:39.701Z,100142.91
2023-07-10T00:29:17.074Z,100135.06
2023-07-10T00:31:44.677Z,100135.91
2023-07-10T00:34:15.534Z,100132.91
2023-07-10T00:36:43.785Z,100146.53
2023-07-10T00:39:21.494Z,100140.81
2023-07-10T00:41:51.410Z,100139.19
2023-07-10T00:44:25.079Z,100136.25
2023-07-10T00:46:57.357Z,100138.81
2023-07-10T00:49:31.444Z,100139.94
2023-07-10T00:52:02.516Z,100149.94
2023-07-10T00:54:33.942Z,100146.50
2023-07-10T00:57:04.073Z,100151.09
2023-07-10T00:59:38.207Z,100151.63
2023-07-10T01:02:19.849Z,100145.81
2023-07-10T01:04:53.893Z,100153.41
2023-07-10T01:07:23.654Z,100156.81
2023-07-10T01:09:54.755Z,100148.97
2023-07-10T01:12:22.969Z,100154.81
2023-07-10T01:14:51.836Z,100152.69
2023-07-10T01:17:20.628Z,100151.25
2023-07-10T01:19:50.195Z,100154.50
2023-07-10T01:22:19.066Z,100159.69
2023-07-10T01:24:53.215Z,100153.66
2023-07-10T01:27:23.303Z,100154.41
2023-07-10T01:29:57.404Z,100157.63
2023-07-10T01:32:28.972Z,100151.38
2023-07-10T01:35:01.394Z,100150.34
2023-07-10T01:37:30.335Z,100159.53
2023-07-10T01:39:57.840Z,100165.09
2023-07-10T01:42:25.601Z,100157.53
2023-07-10T01:44:54.088Z,100153.69
2023-07-10T01:47:22.457Z,100152.66
2023-07-10T01:49:53.852Z,100158.94
2023-07-10T01:52:23.064Z,100152.53
2023-07-10T01:54:54.049Z,100164.94
2023-07-10T01:57:24.960Z,100174.09
2023-07-10T01:59:53.005Z,100180.81
2023-07-10T02:02:20.808Z,100172.69
2023-07-10T02:04:48.347Z,100172.81
2023-07-10T02:07:15.823Z,100174.09
2023-07-10T02:09:43.305Z,100165.94
2023-07-10T02:12:12.439Z,100175.81
2023-07-10T02:14:39.913Z,100174.81
2023-07-10T02:17:07.828Z,100183.13
2023-07-10T02:19:35.381Z,100178.84
2023-07-10T02:22:02.895Z,100178.84
2023-07-10T02:24:30.413Z,100172.09
2023-07-10T02:26:58.096Z,100168.38
2023-07-10T02:29:27.015Z,100168.69
2023-07-10T02:31:54.617Z,100175.13
2023-07-10T02:34:22.173Z,100172.69
2023-07-10T02:36:49.658Z,100183.38
2023-07-10T02:39:17.292Z,100181.66
2023-07-10T02:41:44.795Z,100187.25
2023-07-10T02:44:12.385Z,100187.09
2023-07-10T02:46:41.310Z,100185.81
2023-07-10T02:49:08.848Z,100186.53
2023-07-10T02:51:36.386Z,100191.06
2023-07-10T02:54:10.851Z,100196.22
2023-07-10T02:56:38.370Z,100199.94
2023-07-10T02:59:05.970Z,100188.25
2023-07-10T03:01:33.718Z,100192.41
2023-07-10T03:04:02.538Z,100197.69
2023-07-10T03:06:30.011Z,100194.50
2023-07-10T03:08:59.483Z,100204.06
2023-07-10T03:11:27.103Z,100201.59
2023-07-10T03:13:54.905Z,100200.88
2023-07-10T03:16:22.464Z,100201.00
2023-07-10T03:18:49.935Z,100210.69
2023-07-10T03:21:18.722Z,100218.63
2023-07-10T03:23:49.355Z,100230.31
2023-07-10T03:26:17.027Z,100225.81
2023-07-10T03:28:44.894Z,100229.50
2023-07-10T03:31:12.735Z,100225.25
2023-07-10T03:33:40.229Z,100218.69
2023-07-10T03:36:09.880Z,100228.47
2023-07-10T03:38:38.836Z,100222.13
2023-07-10T03:41:06.929Z,100228.69
2023-07-10T03:43:34.463Z,100229.78
2023-07-10T03:46:02.268Z,100220.06
2023-07-10T03:48:30.123Z,100208.63
2023-07-10T03:50:57.751Z,100203.13
2023-07-10T03:53:28.905Z,100194.22
2023-07-10T03:55:57.945Z,100201.28
2023-07-10T03:58:29.088Z,100202.53
2023-07-10T04:01:00.338Z,100199.81
2023-07-10T04:03:30.515Z,100201.41
2023-07-10T04:05:59.319Z,100208.94
2023-07-10T04:08:29.416Z,100207.66
2023-07-10T04:11:00.861Z,100197.81
2023-07-10T04:13:28.663Z,100201.94
2023-07-10T04:16:01.273Z,100200.69
2023-07-10T04:18:31.002Z,100207.81
2023-07-10T04:20:59.577Z,100226.25
2023-07-10T04:23:27.792Z,100228.56
2023-07-10T04:25:55.941Z,100229.78
2023-07-10T04:28:25.211Z,100228.91
2023-07-10T04:30:53.906Z,100230.06
2023-07-10T04:33:22.317Z,100227.78
2023-07-10T04:35:55.831Z,100231.16
2023-07-10T04:38:25.096Z,100237.25
2023-07-10T04:40:53.637Z,100244.00
2023-07-10T04:43:21.655Z,100250.38
2023-07-10T04:45:51.000Z,100254.69
2023-07-10T04:48:18.548Z,100246.03
2023-07-10T04:50:48.580Z,100244.53
2023-07-10T04:53:16.261Z,100242.81
2023-07-10T04:55:44.574Z,100247.56
2023-07-10T04:58:12.564Z,100251.50
2023-07-10T05:00:40.089Z,100255.53
2023-07-10T05:03:09.778Z,100255.25
2023-07-10T05:05:37.775Z,100257.47
2023-07-10T05:08:05.866Z,100264.22
2023-07-10T05:10:33.494Z,100261.97
2023-07-10T05:13:00.972Z,100264.19
2023-07-10T05:15:28.452Z,100265.06
2023-07-10T05:17:56.044Z,100275.53
2023-07-10T05:20:25.038Z,100284.22
2023-07-10T05:22:52.776Z,100283.03
2023-07-10T05:25:21.045Z,100282.97
2023-07-10T05:27:48.557Z,100286.09
2023-07-10T05:30:16.171Z,100284.44
2023-07-10T05:32:43.731Z,100290.97
2023-07-10T05:35:11.320Z,100295.31
2023-07-10T05:37:40.190Z,100292.25
2023-07-10T05:40:09.157Z,100294.13
2023-07-10T05:42:36.621Z,100291.72
2023-07-10T05:45:04.123Z,100298.00
2023-07-10T05:47:31.631Z,100296.59
2023-07-10T05:49:59.220Z,100302.03
2023-07-10T05:52:26.682Z,100299.47
2023-07-10T05:54:55.516Z,100313.28
2023-07-10T05:57:23.950Z,100302.91
2023-07-10T05:59:51.485Z,100313.50
2023-07-10T06:02:19.048Z,100310.97
2023-07-10T06:04:46.517Z,100321.16
2023-07-10T06:07:14.003Z,100325.00
2023-07-10T06:09:41.450Z,100325.13
2023-07-10T06:12:10.892Z,100337.31
2023-07-10T06:14:38.415Z,100329.50
2023-07-10T06:17:06.536Z,100334.00
2023-07-10T06:19:34.024Z,100331.09
2023-07-10T06:22:09.267Z,100331.03
2023-07-10T06:24:36.734Z,100332.63
2023-07-10T06:27:04.874Z,100340.69
2023-07-10T06:29:35.624Z,100346.63
2023-07-10T06:32:03.351Z,100340.84
2023-07-10T06:34:31.241Z,100344.56
2023-07-10T06:36:58.728Z,100342.00
2023-07-10T06:39:28.763Z,100345.00
2023-07-10T06:41:56.303Z,100347.66
2023-07-10T06:44:23.862Z,100354.28
2023-07-10T06:46:52.722Z,100352.25
2023-07-10T06:49:20.179Z,100356.00
2023-07-10T06:51:47.698Z,100350.19
2023-07-10T06:54:15.186Z,100346.03
2023-07-10T06:56:42.659Z,100353.28
2023-07-10T06:59:10.135Z,100354.53
2023-07-10T07:01:37.646Z,100357.47
2023-07-10T07:04:06.572Z,100347.97
2023-07-10T07:06:34.123Z,100351.41
2023-07-10T07:09:01.608Z,100358.31
2023-07-10T07:11:29.073Z,100365.28
2023-07-10T07:13:56.648Z,100359.47
2023-07-10T07:16:24.171Z,100367.59
2023-07-10T07:19:02.626Z,100371.13
2023-07-10T07:21:39.886Z,100368.00
2023-07-10T07:24:07.617Z,100372.75
2023-07-10T07:26:35.163Z,100371.31
2023-07-10T07:29:02.761Z,100380.38
2023-07-10T07:31:30.336Z,100375.00
2023-07-10T07:33:57.974Z,100373.94
2023-07-10T07:36:25.478Z,100372.97
2023-07-10T07:38:54.338Z,100364.13
2023-07-10T07:41:21.837Z,100372.31
2023-07-10T07:43:50.411Z,100368.63
2023-07-10T07:46:17.907Z,100386.16
2023-07-10T07:48:45.415Z,100381.91
2023-07-10T07:51:13.011Z,100379.97
2023-07-10T07:53:42.465Z,100379.41
2023-07-10T07:56:11.769Z,100385.06
2023-07-10T07:58:39.295Z,100386.75
2023-07-10T08:01:06.960Z,100380.00
2023-07-10T08:03:35.092Z,100386.50
2023-07-10T08:06:03.101Z,100385.75
2023-07-10T08:08:30.791Z,100388.22
2023-07-10T08:10:58.336Z,100379.97
2023-07-10T08:13:27.303Z,100387.41
2023-07-10T08:15:54.989Z,100389.03
2023-07-10T08:18:22.599Z,100379.19
2023-07-10T08:20:50.084Z,100379.22
2023-07-10T08:23:17.949Z,100382.56
2023-07-10T08:25:45.474Z,100383.25
2023-07-10T08:28:12.992Z,100389.13
2023-07-10T08:30:41.977Z,100379.13
2023-07-10T08:33:11.637Z,100380.84
2023-07-10T08:35:39.259Z,100381.84
2023-07-10T08:38:07.264Z,100385.13
2023-07-10T08:40:36.137Z,100386.16
2023-07-10T08:43:23.784Z,100395.84
2023-07-10T08:45:52.914Z,100383.47
2023-07-10T08:48:28.897Z,100382.97
2023-07-10T08:51:00.816Z,100376.13
2023-07-10T08:53:32.785Z,100377.00
2023-07-10T08:56:05.627Z,100377.53
2023-07-10T08:58:38.406Z,100373.50
2023-07-10T09:01:16.282Z,100374.09
2023-07-10T09:03:47.983Z,100382.13
2023-07-10T09:06:20.366Z,100375.72
2023-07-10T09:08:52.214Z,100367.66
2023-07-10T09:11:20.909Z,100367.09
2023-07-10T09:13:55.208Z,100371.22
2023-07-10T09:16:24.940Z,100364.34
2023-07-10T09:18:56.048Z,100372.94
2023-07-10T09:21:26.985Z,100366.50
2023-07-10T09:23:54.557Z,100373.66
2023-07-10T09:26:27.830Z,100370.38
2023-07-10T09:29:03.367Z,100367.97
2023-07-10T09:31:44.341Z,100372.59
2023-07-10T09:34:13.164Z,100376.34
2023-07-10T09:36:41.004Z,100374.84
2023-07-10T09:39:08.644Z,100374.72
2023-07-10T09:41:39.655Z,100385.50
2023-07-10T09:44:24.260Z,100371.25
2023-07-10T09:47:07.482Z,100380.06
2023-07-10T09:49:39.049Z,100372.88
2023-07-10T09:52:17.691Z,100376.56
2023-07-10T09:54:45.179Z,100382.53
2023-07-10T09:57:15.457Z,100379.88
2023-07-10T09:59:49.336Z,100369.53
2023-07-10T10:02:21.467Z,100376.19
2023-07-10T10:04:54.942Z,100374.66
2023-07-10T10:07:24.000Z,100372.97
2023-07-10T10:10:22.798Z,100369.41
2023-07-10T10:12:54.118Z,100364.81
2023-07-10T10:15:30.068Z,100379.19
2023-07-10T10:18:03.279Z,100370.38
2023-07-10T10:20:34.344Z,100372.81
2023-07-10T10:23:02.156Z,100372.03
2023-07-10T10:25:36.213Z,100383.34
2023-07-10T10:28:19.585Z,100377.16
2023-07-10T10:30:51.031Z,100380.47
2023-07-10T10:33:28.748Z,100373.19
2023-07-10T10:35:58.430Z,100364.84
2023-07-10T10:38:37.365Z,100370.84
2023-07-10T10:41:18.776Z,100372.69
2023-07-10T10:43:55.508Z,100370.66
2023-07-10T10:46:37.023Z,100380.53
2023-07-10T10:49:34.320Z,100380.31
2023-07-10T10:52:11.295Z,100377.63
2023-07-10T10:54:49.498Z,100378.78
2023-07-10T10:57:30.246Z,100370.41
2023-07-10T11:00:12.644Z,100376.84
2023-07-10T11:02:56.380Z,100373.38
2023-07-10T11:05:36.332Z,100359.97
2023-07-10T11:08:07.544Z,100365.34
2023-07-10T11:10:38.098Z,100364.41
2023-07-10T11:13:07.054Z,100364.53
2023-07-10T11:15:35.543Z,100363.19
2023-07-10T11:18:03.684Z,100361.31
2023-07-10T11:20:32.630Z,100358.22
2023-07-10T11:23:01.636Z,100352.88
2023-07-10T11:25:34.672Z,100355.97
2023-07-10T11:28:19.604Z,100343.03
2023-07-10T11:30:47.375Z,100358.19
2023-07-10T11:33:19.790Z,100354.69
2023-07-10T11:36:14.848Z,100360.53
2023-07-10T11:38:57.581Z,100360.69
2023-07-10T11:41:29.739Z,100358.97
2023-07-10T11:44:20.775Z,100357.06
2023-07-10T11:47:02.603Z,100354.44
2023-07-10T11:49:45.593Z,100353.22
2023-07-10T11:52:33.895Z,100346.72
2023-07-10T11:55:07.326Z,100348.63
2023-07-10T11:57:36.721Z,100345.69
2023-07-10T12:00:20.821Z,100353.91
2023-07-10T12:02:50.549Z,100351.47
2023-07-10T12:05:21.984Z,100357.31
2023-07-10T12:08:00.046Z,100357.84
2023-07-10T12:10:29.922Z,100353.56
2023-07-10T12:12:58.732Z,100351.66
2023-07-10T12:15:28.081Z,100349.28
2023-07-10T12:17:56.768Z,100352.66
2023-07-10T12:20:29.587Z,100352.84
2023-07-10T12:23:05.585Z,100346.50
2023-07-10T12:25:33.066Z,100348.75
2023-07-10T12:28:25.074Z,100347.53
2023-07-10T12:30:52.369Z,100347.34
2023-07-10T12:33:31.994Z,100348.00
2023-07-10T12:36:04.523Z,100349.75
2023-07-10T12:38:34.832Z,100347.44
2023-07-10T12:41:04.227Z,100344.88
2023-07-10T12:43:31.777Z,100345.38
2023-07-10T12:46:00.292Z,100336.84
2023-07-10T12:48:31.725Z,100338.94
2023-07-10T12:51:02.414Z,100339.00
2023-07-10T12:53:36.430Z,100338.53
2023-07-10T12:56:10.102Z,100329.31
2023-07-10T12:58:38.682Z,100338.84
2023-07-10T13:01:20.897Z,100338.06
2023-07-10T13:04:01.277Z,100336.91
2023-07-10T13:06:28.825Z,100332.00
2023-07-10T13:09:01.837Z,100328.00
2023-07-10T13:11:41.379Z,100335.69
2023-07-10T13:14:17.120Z,100325.41
2023-07-10T13:16:46.495Z,100326.56
2023-07-10T13:19:13.988Z,100323.25
2023-07-10T13:21:41.469Z,100317.34
2023-07-10T13:24:10.357Z,100318.63
2023-07-10T13:26:37.806Z,100314.69
2023-07-10T13:29:13.176Z,100321.91
2023-07-10T13:31:41.044Z,100318.44
2023-07-10T13:34:12.564Z,100320.69
2023-07-10T13:36:41.574Z,100317.94
2023-07-10T13:39:17.280Z,100310.16
2023-07-10T13:41:46.326Z,100318.28
2023-07-10T13:44:14.666Z,100310.69
2023-07-10T13:46:42.621Z,100309.88
2023-07-10T13:49:13.847Z,100321.47
2023-07-10T13:51:42.435Z,100316.09
2023-07-10T13:54:10.421Z,100315.91
2023-07-10T13:56:42.247Z,100308.34
2023-07-10T13:59:15.805Z,100312.22
2023-07-10T14:01:43.385Z,100304.63
2023-07-10T14:04:11.064Z,100299.97
2023-07-10T14:06:40.686Z,100307.66
2023-07-10T14:09:13.538Z,100310.75
2023-07-10T14:11:43.568Z,100309.06
2023-07-10T14:14:15.241Z,100306.31
2023-07-10T14:16:43.280Z,100313.38
2023-07-10T14:19:16.710Z,100311.25
2023-07-10T14:21:44.663Z,100306.72
2023-07-10T14:24:12.157Z,100303.97
2023-07-10T14:26:40.046Z,100306.63
2023-07-10T14:29:14.933Z,100298.00
2023-07-10T14:31:42.481Z,100301.81
2023-07-10T14:34:09.981Z,100295.81
2023-07-10T14:36:37.636Z,100291.94
2023-07-10T14:39:05.209Z,100299.06
2023-07-10T14:41:32.747Z,100305.19
2023-07-10T14:44:00.416Z,100296.53
2023-07-10T14:46:34.543Z,100302.81
2023-07-10T14:49:02.446Z,100309.25
2023-07-10T14:51:29.890Z,100301.22
2023-07-10T14:53:57.398Z,100295.16
2023-07-10T14:56:24.971Z,100297.72
2023-07-10T14:58:52.420Z,100294.47
2023-07-10T15:01:20.004Z,100291.94
2023-07-10T15:03:49.084Z,100293.66
2023-07-10T15:06:26.676Z,100294.47
2023-07-10T15:08:54.455Z,100292.47
2023-07-10T15:11:23.716Z,100286.72
2023-07-10T15:13:52.096Z,100277.31
2023-07-10T15:16:21.819Z,100279.16
2023-07-10T15:18:51.298Z,100279.31
2023-07-10T15:21:21.694Z,100268.38
2023-07-10T15:23:49.463Z,100270.72
2023-07-10T15:26:17.780Z,100267.63
2023-07-10T15:28:45.284Z,100266.34
2023-07-10T15:31:14.576Z,100268.66
2023-07-10T15:33:45.236Z,100258.88
2023-07-10T15:36:19.206Z,100257.09
2023-07-10T15:38:47.211Z,100252.22
2023-07-10T15:41:22.794Z,100243.53
2023-07-10T15:43:50.429Z,100257.19
2023-07-10T15:46:18.357Z,100250.50
2023-07-10T15:48:45.924Z,100244.44
2023-07-10T15:51:23.575Z,100241.06
2023-07-10T15:53:51.190Z,100238.59
2023-07-10T15:56:18.737Z,100246.16
2023-07-10T15:58:46.974Z,100245.28
2023-07-10T16:01:19.221Z,100250.50
2023-07-10T16:03:51.311Z,100246.09
2023-07-10T16:06:20.196Z,100236.09
2023-07-10T16:08:48.095Z,100238.66
2023-07-10T16:11:18.414Z,100240.94
2023-07-10T16:13:48.654Z,100233.53
2023-07-10T16:16:16.692Z,100231.97
2023-07-10T16:18:44.248Z,100231.25
2023-07-10T16:21:16.140Z,100227.97
2023-07-10T16:23:45.979Z,100227.41
2023-07-10T16:26:15.203Z,100224.38
2023-07-10T16:28:43.256Z,100229.94
2023-07-10T16:31:14.153Z,100223.41
2023-07-10T16:33:41.688Z,100227.19
2023-07-10T16:36:13.464Z,100218.16
2023-07-10T16:38:41.007Z,100218.84
2023-07-10T16:41:15.687Z,100216.47
2023-07-10T16:43:43.742Z,100211.16
2023-07-10T16:46:12.843Z,100210.53
2023-07-10T16:48:41.352Z,100207.16
2023-07-10T16:51:17.724Z,100198.22
2023-07-10T16:53:45.644Z,100197.03
2023-07-10T16:56:17.004Z,100192.94
2023-07-10T16:58:45.432Z,100196.56
2023-07-10T17:01:19.543Z,100200.53
2023-07-10T17:03:49.438Z,100203.22
2023-07-10T17:06:18.683Z,100197.94
2023-07-10T17:08:46.223Z,100199.63
2023-07-10T17:11:22.165Z,100200.31
2023-07-10T17:13:49.757Z,100197.91
2023-07-10T17:16:17.386Z,100191.09
2023-07-10T17:18:44.890Z,100193.16
2023-07-10T17:21:14.280Z,100192.13
2023-07-10T17:23:43.204Z,100192.97
2023-07-10T17:26:17.929Z,100182.22
2023-07-10T17:28:46.460Z,100182.91
2023-07-10T17:31:24.270Z,100180.16
2023-07-10T17:33:53.565Z,100178.97
2023-07-10T17:36:21.860Z,100176.56
2023-07-10T17:38:49.968Z,100176.63
2023-07-10T17:41:21.967Z,100168.75
2023-07-10T17:43:55.121Z,100172.41
2023-07-10T17:46:22.854Z,100176.19
2023-07-10T17:48:50.570Z,100170.66
2023-07-10T17:51:26.197Z,100170.50
2023-07-10T17:53:54.824Z,100182.28
2023-07-10T17:56:24.893Z,100176.50
2023-07-10T17:58:54.684Z,100182.84
2023-07-10T18:01:25.548Z,100171.53
2023-07-10T18:03:56.844Z,100182.84
2023-07-10T18:06:24.622Z,100170.38
2023-07-10T18:08:52.153Z,100177.22
2023-07-10T18:11:23.582Z,100177.16
2023-07-10T18:13:53.864Z,100180.97
2023-07-10T18:16:21.426Z,100175.50
2023-07-10T18:18:49.032Z,100177.03
2023-07-10T18:21:21.593Z,100169.19
2023-07-10T18:23:50.078Z,100174.34
2023-07-10T18:26:18.992Z,100167.16
2023-07-10T18:28:47.064Z,100171.06
2023-07-10T18:31:19.988Z,100173.22
2023-07-10T18:33:48.216Z,100175.19
2023-07-10T18:36:17.275Z,100170.00
2023-07-10T18:38:45.122Z,100179.06
2023-07-10T18:41:17.878Z,100176.78
2023-07-10T18:43:46.625Z,100178.19
2023-07-10T18:46:15.354Z,100175.09
2023-07-10T18:48:44.654Z,100178.31
2023-07-10T18:51:17.101Z,100179.47
2023-07-10T18:53:44.846Z,100179.63
2023-07-10T18:56:12.725Z,100173.63
2023-07-10T18:58:42.381Z,100168.84
2023-07-10T19:01:10.437Z,100166.69
2023-07-10T19:03:38.542Z,100182.66
2023-07-10T19:06:18.397Z,100180.88
2023-07-10T19:08:46.762Z,100176.16
2023-07-10T19:11:15.995Z,100179.69
2023-07-10T19:13:44.154Z,100178.09
2023-07-10T19:16:22.238Z,100174.13
2023-07-10T19:18:54.205Z,100180.84
2023-07-10T19:21:23.112Z,100174.47
2023-07-10T19:23:50.702Z,100175.03
2023-07-10T19:26:19.354Z,100167.75
2023-07-10T19:28:47.406Z,100167.22
2023-07-10T19:31:16.797Z,100163.75
2023-07-10T19:33:47.663Z,100168.09
2023-07-10T19:36:18.987Z,100174.09
2023-07-10T19:38:47.973Z,100162.28
2023-07-10T19:41:15.683Z,100173.94
2023-07-10T19:43:43.721Z,100165.25
2023-07-10T19:46:16.855Z,100159.94
2023-07-10T19:48:44.918Z,100161.94
2023-07-10T19:51:12.585Z,100159.91
2023-07-10T19:53:40.111Z,100149.94
2023-07-10T19:56:21.324Z,100151.00
2023-07-10T19:58:51.393Z,100151.25
2023-07-10T20:01:21.171Z,100148.22
2023-07-10T20:03:48.833Z,100155.84
2023-07-10T20:06:25.536Z,100148.44
2023-07-10T20:08:53.767Z,100155.66
2023-07-10T20:11:22.962Z,100155.44
2023-07-10T20:13:50.883Z,100150.59
2023-07-10T20:16:23.536Z,100143.31
2023-07-10T20:18:51.060Z,100143.34
2023-07-10T20:21:19.517Z,100145.03
2023-07-10T20:23:47.422Z,100140.66
2023-07-10T20:26:16.870Z,100143.13
2023-07-10T20:28:46.532Z,100141.56
2023-07-10T20:31:16.303Z,100135.38
2023-07-10T20:33:44.395Z,100135.38
2023-07-10T20:36:25.491Z,100135.91
2023-07-10T20:38:54.018Z,100130.63
2023-07-10T20:41:23.658Z,100140.53
2023-07-10T20:43:52.500Z,100137.38
2023-07-10T20:46:22.702Z,100139.78
2023-07-10T20:48:51.252Z,100142.81
2023-07-10T20:51:23.613Z,100142.53
2023-07-10T20:53:51.824Z,100140.81
2023-07-10T20:56:25.375Z,100132.38
2023-07-10T20:58:55.111Z,100134.66
2023-07-10T21:01:26.865Z,100138.25
2023-07-10T21:03:54.776Z,100129.09
2023-07-10T21:06:25.451Z,100129.66
2023-07-10T21:08:54.912Z,100127.09
2023-07-10T21:11:24.663Z,100123.41
2023-07-10T21:13:55.896Z,100119.69
2023-07-10T21:16:26.218Z,100117.66
2023-07-10T21:18:54.462Z,100123.56
2023-07-10T21:21:22.378Z,100119.38
2023-07-10T21:23:50.809Z,100116.81
2023-07-10T21:26:20.410Z,100116.38
2023-07-10T21:28:49.497Z,100115.09
2023-07-10T21:31:20.798Z,100112.22
2023-07-10T21:33:51.264Z,100113.34
2023-07-10T21:36:20.372Z,100111.69
2023-07-10T21:38:48.226Z,100115.41
2023-07-10T21:41:18.676Z,100107.13
2023-07-10T21:43:48.335Z,100102.69
2023-07-10T21:46:24.304Z,100105.69
2023-07-10T21:48:52.417Z,100103.25
2023-07-10T21:51:20.274Z,100093.97
2023-07-10T21:53:48.129Z,100097.66
2023-07-10T21:56:18.617Z,100095.34
2023-07-10T21:58:47.944Z,100086.50
2023-07-10T22:01:18.603Z,100092.81
2023-07-10T22:03:46.944Z,100091.50
2023-07-10T22:06:16.114Z,100091.38
2023-07-10T22:08:44.102Z,100087.78
2023-07-10T22:11:14.952Z,100084.31
2023-07-10T22:13:43.274Z,100084.22
2023-07-10T22:16:16.622Z,100082.19
2023-07-10T22:18:46.963Z,100082.75
2023-07-10T22:21:15.261Z,100079.97
2023-07-10T22:23:42.767Z,100079.06
2023-07-10T22:26:11.455Z,100080.19
2023-07-10T22:28:39.651Z,100079.94
2023-07-10T22:31:11.635Z,100081.09
2023-07-10T22:33:40.177Z,100081.91
2023-07-10T22:36:09.496Z,100080.19
2023-07-10T22:38:37.087Z,100073.63
2023-07-10T22:41:07.920Z,100077.91
2023-07-10T22:43:41.491Z,100074.53
2023-07-10T22:46:14.545Z,100073.13
2023-07-10T22:48:42.333Z,100072.25
2023-07-10T22:51:14.429Z,100076.44
2023-07-10T22:53:42.189Z,100076.13
2023-07-10T22:56:11.912Z,100079.41
2023-07-10T22:58:39.477Z,100074.97
2023-07-10T23:01:07.070Z,100066.25
2023-07-10T23:03:35.031Z,100059.69
2023-07-10T23:06:04.211Z,100060.38
2023-07-10T23:08:34.675Z,100065.56
2023-07-10T23:11:04.385Z,100066.25
2023-07-10T23:13:32.282Z,100061.94
2023-07-10T23:16:00.163Z,100067.38
2023-07-10T23:18:27.773Z,100057.63
2023-07-10T23:20:55.280Z,100060.81
2023-07-10T23:23:22.784Z,100051.53
2023-07-10T23:25:51.660Z,100055.09
2023-07-10T23:28:19.208Z,100057.25
2023-07-10T23:30:46.836Z,100053.91
2023-07-10T23:33:15.335Z,100047.91
2023-07-10T23:35:43.348Z,100062.44
2023-07-10T23:38:12.152Z,100048.75
2023-07-10T23:40:39.806Z,100050.75
2023-07-10T23:43:08.638Z,100044.91
2023-07-10T23:45:36.168Z,100044.47
2023-07-10T23:48:03.804Z,100044.41
2023-07-10T23:50:31.380Z,100044.88
2023-07-10T23:52:58.898Z,100035.44
2023-07-10T23:55:26.412Z,100037.66
2023-07-10T23:57:53.916Z,100041.41
